createdAt,value
2022-12-25T00:03:25.769Z,1.50
2022-12-25T00:07:27.718Z,2.38
2022-12-25T00:11:29.539Z,1.50
2022-12-25T00:15:31.320Z,2.40
2022-12-25T00:19:33.271Z,3.28
2022-12-25T00:23:35.928Z,3.08
2022-12-25T00:27:41.242Z,4.20
2022-12-25T00:31:43.069Z,2.28
2022-12-25T00:35:44.915Z,4.03
2022-12-25T00:39:49.516Z,2.05
2022-12-25T00:43:51.250Z,2.15
2022-12-25T00:47:53.658Z,1.42
2022-12-25T00:51:55.701Z,1.70
2022-12-25T00:56:03.314Z,1.67
2022-12-25T01:00:05.637Z,2.22
2022-12-25T01:04:08.888Z,3.05
2022-12-25T01:08:10.990Z,3.70
2022-12-25T01:12:12.732Z,2.42
2022-12-25T01:16:16.198Z,2.47
2022-12-25T01:20:18.652Z,3.42
2022-12-25T01:24:20.410Z,2.30
2022-12-25T01:28:23.265Z,3.78
2022-12-25T01:32:25.029Z,3.10
2022-12-25T01:36:27.098Z,2.15
2022-12-25T01:40:28.859Z,2.90
2022-12-25T01:44:36.646Z,4.07
2022-12-25T01:48:39.660Z,3.97
2022-12-25T01:52:41.685Z,4.72
2022-12-25T01:56:46.083Z,5.65
2022-12-25T02:00:48.092Z,4.68
2022-12-25T02:05:02.015Z,5.50
2022-12-25T02:09:04.172Z,3.75
2022-12-25T02:13:07.900Z,3.75
2022-12-25T02:17:23.184Z,4.30
2022-12-25T02:21:43.350Z,4.25
2022-12-25T02:26:32.946Z,4.97
2022-12-25T02:30:49.573Z,8.88
2022-12-25T02:35:00.538Z,4.73
2022-12-25T02:39:25.054Z,6.05
2022-12-25T02:43:55.026Z,5.90
2022-12-25T02:48:16.445Z,5.93
2022-12-25T02:52:39.514Z,4.45
2022-12-25T02:57:03.041Z,2.97
2022-12-25T03:01:28.035Z,3.10
2022-12-25T03:05:51.143Z,2.10
2022-12-25T03:10:18.589Z,3.47
2022-12-25T03:14:38.776Z,1.98
2022-12-25T03:18:41.499Z,1.83
2022-12-25T03:23:03.795Z,1.55
2022-12-25T03:27:05.539Z,1.83
2022-12-25T03:31:25.577Z,1.67
2022-12-25T03:35:44.266Z,1.67
2022-12-25T03:40:28.268Z,1.65
2022-12-25T03:44:59.355Z,1.55
2022-12-25T03:49:32.275Z,1.60
2022-12-25T03:54:12.782Z,1.58
2022-12-25T03:58:39.299Z,2.13
2022-12-25T04:03:00.228Z,2.83
2022-12-25T04:07:20.658Z,1.60
2022-12-25T04:11:41.000Z,1.85
2022-12-25T04:16:01.598Z,4.22
2022-12-25T04:20:22.341Z,2.47
2022-12-25T04:24:42.617Z,2.88
2022-12-25T04:29:03.435Z,1.85
2022-12-25T04:33:23.929Z,1.50
2022-12-25T04:37:26.036Z,2.03
2022-12-25T04:41:28.294Z,3.45
2022-12-25T04:45:30.614Z,2.30
2022-12-25T04:49:32.592Z,4.05
2022-12-25T04:53:34.419Z,2.75
2022-12-25T04:57:36.992Z,2.38
2022-12-25T05:01:38.958Z,2.35
2022-12-25T05:05:40.941Z,3.95
2022-12-25T05:09:42.796Z,3.60
2022-12-25T05:13:44.822Z,4.70
2022-12-25T05:17:46.755Z,2.53
2022-12-25T05:21:48.545Z,2.15
2022-12-25T05:25:50.484Z,3.40
2022-12-25T05:29:52.603Z,4.40
2022-12-25T05:33:54.790Z,4.28
2022-12-25T05:37:56.872Z,6.47
2022-12-25T05:41:58.827Z,6.97
2022-12-25T05:46:11.112Z,7.18
2022-12-25T05:50:13.114Z,6.88
2022-12-25T05:54:14.977Z,7.13
2022-12-25T05:58:16.837Z,4.18
2022-12-25T06:02:19.024Z,3.10
2022-12-25T06:06:21.142Z,4.03
2022-12-25T06:10:23.349Z,3.45
2022-12-25T06:14:25.254Z,2.20
2022-12-25T06:18:27.221Z,2.08
2022-12-25T06:22:33.058Z,1.55
2022-12-25T06:26:35.017Z,1.42
2022-12-25T06:30:36.741Z,2.17
2022-12-25T06:34:38.455Z,2.30
2022-12-25T06:38:40.741Z,1.40
2022-12-25T06:42:42.491Z,2.05
2022-12-25T06:46:44.249Z,1.83
2022-12-25T06:50:45.949Z,2.28
2022-12-25T06:54:47.781Z,1.92
2022-12-25T06:58:52.630Z,1.75
2022-12-25T07:02:54.429Z,1.50
2022-12-25T07:06:56.320Z,1.30
2022-12-25T07:10:58.026Z,1.40
2022-12-25T07:14:59.763Z,1.60
2022-12-25T07:19:01.622Z,1.55
2022-12-25T07:23:03.399Z,1.52
2022-12-25T07:27:05.193Z,3.92
2022-12-25T07:31:13.019Z,2.10
2022-12-25T07:35:15.547Z,2.97
2022-12-25T07:39:17.536Z,2.58
2022-12-25T07:43:19.494Z,2.75
2022-12-25T07:47:21.243Z,3.17
2022-12-25T07:51:23.533Z,3.20
2022-12-25T07:55:25.356Z,1.75
2022-12-25T07:59:27.089Z,2.03
2022-12-25T08:03:29.072Z,3.38
2022-12-25T08:07:31.041Z,2.67
2022-12-25T08:11:32.976Z,3.15
2022-12-25T08:15:34.708Z,2.22
2022-12-25T08:19:36.422Z,2.20
2022-12-25T08:23:40.653Z,2.15
2022-12-25T08:27:42.374Z,1.98
2022-12-25T08:31:46.646Z,4.60
2022-12-25T08:35:48.613Z,3.00
2022-12-25T08:39:50.349Z,4.53
2022-12-25T08:43:52.212Z,2.97
2022-12-25T08:47:55.439Z,1.98
2022-12-25T08:51:57.198Z,3.72
2022-12-25T08:56:06.456Z,4.05
2022-12-25T09:00:09.040Z,1.90
2022-12-25T09:04:10.767Z,3.83
2022-12-25T09:08:12.505Z,3.97
2022-12-25T09:12:14.260Z,3.03
2022-12-25T09:16:20.645Z,2.75
2022-12-25T09:20:22.511Z,2.55
2022-12-25T09:24:24.363Z,3.20
2022-12-25T09:28:26.287Z,2.00
2022-12-25T09:32:28.053Z,2.70
2022-12-25T09:36:29.845Z,5.07
2022-12-25T09:40:32.405Z,5.45
2022-12-25T09:44:40.441Z,3.28
2022-12-25T09:48:49.477Z,3.47
2022-12-25T09:53:09.802Z,2.75
2022-12-25T09:57:13.773Z,3.53
2022-12-25T10:01:19.468Z,2.55
2022-12-25T10:05:55.812Z,3.33
2022-12-25T10:10:04.992Z,6.70
2022-12-25T10:14:30.751Z,3.00
2022-12-25T10:18:53.090Z,3.80
2022-12-25T10:22:59.831Z,3.83
2022-12-25T10:27:07.424Z,3.80
2022-12-25T10:31:20.933Z,3.22
2022-12-25T10:35:25.415Z,4.43
2022-12-25T10:39:27.191Z,4.10
2022-12-25T10:43:48.996Z,4.13
2022-12-25T10:48:06.825Z,3.92
2022-12-25T10:52:27.331Z,4.85
2022-12-25T10:56:29.404Z,6.47
2022-12-25T11:00:32.632Z,3.58
2022-12-25T11:04:35.630Z,4.43
2022-12-25T11:08:37.360Z,5.18
2022-12-25T11:12:43.174Z,5.45
2022-12-25T11:16:44.962Z,5.15
2022-12-25T11:20:54.391Z,5.68
2022-12-25T11:24:56.272Z,5.07
2022-12-25T11:28:59.194Z,4.57
2022-12-25T11:33:12.561Z,2.78
2022-12-25T11:37:41.767Z,5.60
2022-12-25T11:41:44.242Z,2.47
2022-12-25T11:45:52.463Z,3.47
2022-12-25T11:50:00.997Z,4.35
2022-12-25T11:54:17.011Z,2.15
2022-12-25T11:58:56.934Z,3.05
2022-12-25T12:03:24.419Z,4.40
2022-12-25T12:11:43.744Z,4.20
2022-12-25T12:15:49.732Z,3.10
2022-12-25T12:19:52.680Z,3.38
2022-12-25T12:24:10.653Z,5.22
2022-12-25T12:28:39.463Z,3.70
2022-12-25T12:32:44.558Z,3.28
2022-12-25T12:36:46.398Z,3.38
2022-12-25T12:41:04.672Z,3.33
2022-12-25T12:45:20.560Z,4.00
2022-12-25T12:49:26.747Z,2.85
2022-12-25T12:53:30.860Z,3.07
2022-12-25T12:57:39.966Z,4.00
2022-12-25T13:01:52.088Z,5.55
2022-12-25T13:06:20.345Z,2.47
2022-12-25T13:10:30.047Z,4.43
2022-12-25T13:14:32.015Z,3.03
2022-12-25T13:18:34.081Z,4.63
2022-12-25T13:22:36.767Z,3.38
2022-12-25T13:26:39.444Z,2.72
2022-12-25T13:30:41.434Z,3.88
2022-12-25T13:34:43.329Z,2.45
2022-12-25T13:38:47.861Z,5.80
2022-12-25T13:42:50.248Z,7.53
2022-12-25T13:46:52.216Z,5.03
2022-12-25T13:50:59.138Z,5.40
2022-12-25T13:55:25.844Z,4.95
2022-12-25T13:59:27.622Z,4.55
2022-12-25T14:03:40.071Z,5.15
2022-12-25T14:07:41.886Z,4.07
2022-12-25T14:11:48.757Z,3.95
2022-12-25T14:15:52.545Z,3.17
2022-12-25T14:20:05.703Z,3.60
2022-12-25T14:24:16.584Z,4.95
2022-12-25T14:28:18.313Z,1.92
2022-12-25T14:32:23.133Z,3.78
2022-12-25T14:36:25.308Z,2.10
2022-12-25T14:40:32.693Z,2.00
2022-12-25T14:44:39.456Z,3.75
2022-12-25T14:48:41.199Z,2.13
2022-12-25T14:52:45.060Z,3.30
2022-12-25T14:56:49.373Z,2.30
2022-12-25T15:00:57.800Z,2.30
2022-12-25T15:04:59.545Z,2.45
2022-12-25T15:09:04.634Z,3.10
2022-12-25T15:13:06.827Z,2.03
2022-12-25T15:17:26.689Z,1.38
2022-12-25T15:21:33.883Z,1.33
2022-12-25T15:30:08.463Z,1.77
2022-12-25T15:34:01.966Z,2.30
2022-12-25T15:38:03.801Z,2.25
2022-12-25T15:42:17.543Z,1.20
2022-12-25T15:46:20.476Z,3.72
2022-12-25T15:50:22.550Z,1.73
2022-12-25T15:54:24.354Z,1.48
2022-12-25T15:58:26.164Z,2.60
2022-12-25T16:02:28.326Z,2.75
2022-12-25T16:06:30.328Z,2.78
2022-12-25T16:10:38.232Z,2.78
2022-12-25T16:14:40.593Z,3.25
2022-12-25T16:18:47.375Z,2.92
2022-12-25T16:22:49.830Z,2.70
2022-12-25T16:26:51.643Z,4.50
2022-12-25T16:30:53.440Z,4.38
2022-12-25T16:34:55.218Z,4.30
2022-12-25T16:38:57.005Z,3.92
2022-12-25T16:42:58.939Z,2.83
2022-12-25T16:47:00.928Z,2.83
2022-12-25T16:51:14.291Z,3.80
2022-12-25T16:55:16.039Z,6.55
2022-12-25T16:59:17.939Z,4.07
2022-12-25T17:03:19.763Z,5.85
2022-12-25T17:07:21.588Z,5.57
2022-12-25T17:11:27.325Z,5.95
2022-12-25T17:15:29.192Z,3.25
2022-12-25T17:19:31.233Z,2.63
2022-12-25T17:23:33.032Z,5.60
2022-12-25T17:27:34.779Z,3.10
2022-12-25T17:31:37.935Z,4.97
2022-12-25T17:35:39.745Z,5.80
2022-12-25T17:39:41.480Z,4.40
2022-12-25T17:43:45.620Z,3.72
2022-12-25T17:47:47.617Z,4.72
2022-12-25T17:51:49.587Z,4.32
2022-12-25T17:55:51.344Z,6.10
2022-12-25T17:59:53.083Z,4.93
2022-12-25T18:03:55.341Z,2.75
2022-12-25T18:07:57.175Z,6.30
2022-12-25T18:11:58.976Z,3.35
2022-12-25T18:16:06.634Z,2.97
2022-12-25T18:20:08.976Z,4.30
2022-12-25T18:24:10.788Z,3.53
2022-12-25T18:28:12.905Z,4.90
2022-12-25T18:32:14.663Z,4.07
2022-12-25T18:36:20.052Z,5.07
2022-12-25T18:40:22.279Z,5.28
2022-12-25T18:44:24.051Z,4.03
2022-12-25T18:48:26.314Z,5.00
2022-12-25T18:52:47.502Z,3.60
2022-12-25T18:56:53.377Z,3.35
2022-12-25T19:00:55.703Z,3.33
2022-12-25T19:04:57.513Z,2.35
2022-12-25T19:08:59.681Z,2.95
2022-12-25T19:13:01.707Z,5.43
2022-12-25T19:17:04.839Z,3.20
2022-12-25T19:21:08.684Z,7.13
2022-12-25T19:25:10.448Z,4.88
2022-12-25T19:29:12.679Z,6.30
2022-12-25T19:33:17.929Z,5.45
2022-12-25T19:37:19.991Z,6.38
2022-12-25T19:41:22.010Z,9.02
2022-12-25T19:45:24.362Z,5.57
2022-12-25T19:49:26.177Z,7.97
2022-12-25T19:53:29.999Z,6.25
2022-12-25T19:57:31.767Z,5.65
2022-12-25T20:01:33.770Z,6.22
2022-12-25T20:05:37.185Z,4.43
2022-12-25T20:09:38.930Z,5.28
2022-12-25T20:13:40.750Z,8.45
2022-12-25T20:17:42.720Z,8.18
2022-12-25T20:21:46.881Z,6.50
2022-12-25T20:25:48.856Z,5.55
2022-12-25T20:29:50.612Z,8.75
2022-12-25T20:33:52.327Z,11.15
2022-12-25T20:37:54.278Z,13.00
2022-12-25T20:41:56.035Z,7.90
2022-12-25T20:45:58.269Z,8.57
2022-12-25T20:49:59.967Z,7.07
2022-12-25T20:54:06.374Z,8.40
2022-12-25T20:58:08.150Z,5.78
2022-12-25T21:02:34.549Z,8.30
2022-12-25T21:06:34.549Z,7.97
2022-12-25T21:10:36.285Z,9.15
2022-12-25T21:14:40.271Z,7.85
2022-12-25T21:18:42.207Z,9.50
2022-12-25T21:22:43.984Z,8.18
2022-12-25T21:26:48.102Z,11.50
2022-12-25T21:30:51.309Z,10.48
2022-12-25T21:34:53.133Z,9.88
2022-12-25T21:38:58.365Z,10.30
2022-12-25T21:43:01.227Z,11.95
2022-12-25T21:47:03.005Z,12.18
2022-12-25T21:51:30.948Z,11.60
2022-12-25T21:55:35.611Z,12.95
2022-12-25T21:59:37.412Z,10.95
2022-12-25T22:03:39.224Z,11.38
2022-12-25T22:07:41.105Z,13.32
2022-12-25T22:12:02.438Z,12.48
2022-12-25T22:16:23.446Z,13.07
2022-12-25T22:20:34.551Z,10.48
2022-12-25T22:24:36.413Z,11.95
2022-12-25T22:28:38.321Z,8.93
2022-12-25T22:32:40.349Z,12.43
2022-12-25T22:36:42.126Z,9.27
2022-12-25T22:40:43.845Z,10.70
2022-12-25T22:44:45.792Z,12.82
2022-12-25T22:48:47.512Z,9.25
2022-12-25T22:52:49.289Z,11.35
2022-12-25T22:56:52.801Z,8.35
2022-12-25T23:00:54.633Z,6.95
2022-12-25T23:04:56.356Z,3.20
2022-12-25T23:08:58.172Z,3.60
2022-12-25T23:13:18.270Z,3.67
2022-12-25T23:17:38.765Z,5.68
2022-12-25T23:22:00.281Z,4.28
2022-12-25T23:26:09.003Z,4.35
2022-12-25T23:30:13.227Z,5.25
2022-12-25T23:34:14.953Z,3.55
2022-12-25T23:38:16.679Z,5.07
2022-12-25T23:42:18.452Z,5.03
2022-12-25T23:46:20.289Z,2.67
2022-12-25T23:50:22.036Z,3.22
2022-12-25T23:54:27.954Z,3.03
2022-12-25T23:58:30.098Z,3.28
